sensor_id;sensor_type;location;lat;lon;timestamp;pressure;altitude;pressure_sealevel;temperature;humidity
40850;BME280;26571;41.610;25.380;2023-05-21T00:01:13;97945.75;;;16.62;88.04
40850;BME280;26571;41.610;25.380;2023-05-21T00:03:42;97924.50;;;16.62;87.40
40850;BME280;26571;41.610;25.380;2023-05-21T00:06:10;97948.78;;;16.66;85.84
40850;BME280;26571;41.610;25.380;2023-05-21T00:08:37;97935.50;;;16.66;85.58
40850;BME280;26571;41.610;25.380;2023-05-21T00:11:03;97950.63;;;16.72;82.26
40850;BME280;26571;41.610;25.380;2023-05-21T00:13:28;97947.50;;;16.75;82.42
40850;BME280;26571;41.610;25.380;2023-05-21T00:15:54;97941.59;;;16.73;83.04
40850;BME280;26571;41.610;25.380;2023-05-21T00:18:19;97937.50;;;16.77;82.28
40850;BME280;26571;41.610;25.380;2023-05-21T00:20:46;97928.47;;;16.78;80.75
40850;BME280;26571;41.610;25.380;2023-05-21T00:23:12;97908.47;;;16.69;80.42
40850;BME280;26571;41.610;25.380;2023-05-21T00:25:37;97927.72;;;16.71;79.83
40850;BME280;26571;41.610;25.380;2023-05-21T00:28:03;97922.38;;;16.71;79.46
40850;BME280;26571;41.610;25.380;2023-05-21T00:30:28;97926.50;;;16.67;79.48
40850;BME280;26571;41.610;25.380;2023-05-21T00:32:53;97918.97;;;16.64;80.42
40850;BME280;26571;41.610;25.380;2023-05-21T00:35:19;97921.19;;;16.67;79.75
40850;BME280;26571;41.610;25.380;2023-05-21T00:37:45;97920.00;;;16.63;79.87
40850;BME280;26571;41.610;25.380;2023-05-21T00:40:11;97923.63;;;16.68;77.81
40850;BME280;26571;41.610;25.380;2023-05-21T00:42:37;97936.28;;;16.73;77.86
40850;BME280;26571;41.610;25.380;2023-05-21T00:45:06;97921.19;;;16.67;77.54
40850;BME280;26571;41.610;25.380;2023-05-21T00:47:32;97933.41;;;16.74;77.32
40850;BME280;26571;41.610;25.380;2023-05-21T00:49:58;97941.59;;;16.73;77.58
40850;BME280;26571;41.610;25.380;2023-05-21T00:52:24;97945.66;;;16.75;77.19
40850;BME280;26571;41.610;25.380;2023-05-21T00:54:51;97934.84;;;16.70;77.07
40850;BME280;26571;41.610;25.380;2023-05-21T00:57:18;97913.72;;;16.57;76.18
40850;BME280;26571;41.610;25.380;2023-05-21T00:59:49;97940.72;;;16.79;76.36
40850;BME280;26571;41.610;25.380;2023-05-21T01:02:15;97947.66;;;16.80;76.30
40850;BME280;26571;41.610;25.380;2023-05-21T01:04:43;97955.00;;;16.85;76.19
40850;BME280;26571;41.610;25.380;2023-05-21T01:07:09;97947.25;;;16.83;76.99
40850;BME280;26571;41.610;25.380;2023-05-21T01:09:34;97945.78;;;16.87;77.07
40850;BME280;26571;41.610;25.380;2023-05-21T01:12:00;97910.97;;;16.64;77.29
40850;BME280;26571;41.610;25.380;2023-05-21T01:14:27;97942.97;;;16.82;77.42
40850;BME280;26571;41.610;25.380;2023-05-21T01:16:54;97901.22;;;16.58;76.99
40850;BME280;26571;41.610;25.380;2023-05-21T01:19:21;97942.16;;;16.82;76.55
40850;BME280;26571;41.610;25.380;2023-05-21T01:21:50;97936.63;;;16.83;75.61
40850;BME280;26571;41.610;25.380;2023-05-21T01:24:17;97934.84;;;16.77;75.19
40850;BME280;26571;41.610;25.380;2023-05-21T01:26:43;97942.19;;;16.75;75.53
40850;BME280;26571;41.610;25.380;2023-05-21T01:29:11;97935.41;;;16.79;75.39
40850;BME280;26571;41.610;25.380;2023-05-21T01:32:05;97928.91;;;16.75;76.17
40850;BME280;26571;41.610;25.380;2023-05-21T01:34:49;97934.69;;;16.72;76.37
40850;BME280;26571;41.610;25.380;2023-05-21T01:37:33;97932.59;;;16.74;75.95
40850;BME280;26571;41.610;25.380;2023-05-21T01:40:04;97929.06;;;16.80;75.32
40850;BME280;26571;41.610;25.380;2023-05-21T01:42:35;97919.47;;;16.79;74.65
40850;BME280;26571;41.610;25.380;2023-05-21T01:45:00;97918.50;;;16.73;74.93
40850;BME280;26571;41.610;25.380;2023-05-21T01:47:30;97910.75;;;16.72;75.44
40850;BME280;26571;41.610;25.380;2023-05-21T01:49:56;97910.09;;;16.70;75.14
40850;BME280;26571;41.610;25.380;2023-05-21T01:52:23;97866.78;;;16.44;74.75
40850;BME280;26571;41.610;25.380;2023-05-21T01:54:48;97912.59;;;16.65;74.11
40850;BME280;26571;41.610;25.380;2023-05-21T01:57:16;97906.88;;;16.68;73.92
40850;BME280;26571;41.610;25.380;2023-05-21T01:59:42;97913.41;;;16.72;72.84
40850;BME280;26571;41.610;25.380;2023-05-21T02:02:08;97922.78;;;16.74;72.67
40850;BME280;26571;41.610;25.380;2023-05-21T02:04:34;97915.41;;;16.76;73.68
40850;BME280;26571;41.610;25.380;2023-05-21T02:06:59;97919.03;;;16.82;72.72
40850;BME280;26571;41.610;25.380;2023-05-21T02:09:24;97912.31;;;16.79;72.36
40850;BME280;26571;41.610;25.380;2023-05-21T02:11:50;97927.16;;;16.87;71.42
40850;BME280;26571;41.610;25.380;2023-05-21T02:14:15;97922.66;;;16.88;71.61
40850;BME280;26571;41.610;25.380;2023-05-21T02:16:41;97931.22;;;16.90;71.49
40850;BME280;26571;41.610;25.380;2023-05-21T02:19:06;97914.03;;;16.92;72.04
40850;BME280;26571;41.610;25.380;2023-05-21T02:21:34;97915.94;;;16.85;73.06
40850;BME280;26571;41.610;25.380;2023-05-21T02:24:00;97906.94;;;16.86;72.52
40850;BME280;26571;41.610;25.380;2023-05-21T02:26:25;97899.53;;;16.88;72.57
40850;BME280;26571;41.610;25.380;2023-05-21T02:28:52;97913.88;;;16.87;72.98
40850;BME280;26571;41.610;25.380;2023-05-21T02:31:18;97900.28;;;16.70;73.13
40850;BME280;26571;41.610;25.380;2023-05-21T02:33:43;97921.03;;;16.87;72.44
40850;BME280;26571;41.610;25.380;2023-05-21T02:36:08;97914.03;;;16.92;72.57
40850;BME280;26571;41.610;25.380;2023-05-21T02:38:40;97921.41;;;16.90;73.40
40850;BME280;26571;41.610;25.380;2023-05-21T02:41:08;97921.41;;;16.90;72.73
40850;BME280;26571;41.610;25.380;2023-05-21T02:43:35;97913.66;;;16.89;71.85
40850;BME280;26571;41.610;25.380;2023-05-21T02:46:00;97918.16;;;16.88;71.53
40850;BME280;26571;41.610;25.380;2023-05-21T02:48:25;97923.84;;;16.92;70.88
40850;BME280;26571;41.610;25.380;2023-05-21T02:50:51;97931.84;;;16.92;70.39
40850;BME280;26571;41.610;25.380;2023-05-21T02:53:16;97930.16;;;16.97;70.80
40850;BME280;26571;41.610;25.380;2023-05-21T02:55:41;97934.84;;;16.95;70.67
40850;BME280;26571;41.610;25.380;2023-05-21T02:58:07;97936.13;;;16.93;70.74
40850;BME280;26571;41.610;25.380;2023-05-21T03:00:32;97937.66;;;17.00;69.95
40850;BME280;26571;41.610;25.380;2023-05-21T03:02:58;97934.00;;;17.01;70.66
40850;BME280;26571;41.610;25.380;2023-05-21T03:05:23;97934.41;;;16.98;71.21
40850;BME280;26571;41.610;25.380;2023-05-21T03:07:49;97945.78;;;17.05;72.01
40850;BME280;26571;41.610;25.380;2023-05-21T03:10:15;97933.53;;;17.04;71.39
40850;BME280;26571;41.610;25.380;2023-05-21T03:12:40;97937.09;;;16.98;72.04
40850;BME280;26571;41.610;25.380;2023-05-21T03:15:06;97956.13;;;16.95;73.26
40850;BME280;26571;41.610;25.380;2023-05-21T03:17:31;97952.28;;;16.91;73.85
40850;BME280;26571;41.610;25.380;2023-05-21T03:19:57;97946.81;;;16.86;77.71
40850;BME280;26571;41.610;25.380;2023-05-21T03:22:22;97956.69;;;16.79;78.09
40850;BME280;26571;41.610;25.380;2023-05-21T03:24:47;97944.84;;;16.75;77.89
40850;BME280;26571;41.610;25.380;2023-05-21T03:27:13;97948.56;;;16.67;78.65
40850;BME280;26571;41.610;25.380;2023-05-21T03:29:39;97943.53;;;16.59;79.77
40850;BME280;26571;41.610;25.380;2023-05-21T03:32:04;97942.56;;;16.53;81.51
40850;BME280;26571;41.610;25.380;2023-05-21T03:34:30;97938.28;;;16.52;81.28
40850;BME280;26571;41.610;25.380;2023-05-21T03:36:58;97926.22;;;16.50;79.62
40850;BME280;26571;41.610;25.380;2023-05-21T03:39:24;97943.91;;;16.63;79.76
40850;BME280;26571;41.610;25.380;2023-05-21T03:41:49;97934.16;;;16.57;80.63
40850;BME280;26571;41.610;25.380;2023-05-21T03:44:15;97941.69;;;16.60;81.62
40850;BME280;26571;41.610;25.380;2023-05-21T03:46:40;97933.72;;;16.60;82.34
40850;BME280;26571;41.610;25.380;2023-05-21T03:49:06;97922.50;;;16.58;82.58
40850;BME280;26571;41.610;25.380;2023-05-21T03:51:32;97935.16;;;16.55;83.09
40850;BME280;26571;41.610;25.380;2023-05-21T03:53:58;97920.09;;;16.49;82.96
40850;BME280;26571;41.610;25.380;2023-05-21T03:56:23;97928.22;;;16.54;83.86
40850;BME280;26571;41.610;25.380;2023-05-21T03:58:49;97934.50;;;16.60;83.12
40850;BME280;26571;41.610;25.380;2023-05-21T04:01:14;97936.97;;;16.62;83.10
40850;BME280;26571;41.610;25.380;2023-05-21T04:03:40;97915.88;;;16.42;84.57
40850;BME280;26571;41.610;25.380;2023-05-21T04:06:06;97931.53;;;16.50;84.61
40850;BME280;26571;41.610;25.380;2023-05-21T04:08:34;97926.53;;;16.60;84.86
40850;BME280;26571;41.610;25.380;2023-05-21T04:11:00;97934.75;;;16.59;84.77
40850;BME280;26571;41.610;25.380;2023-05-21T04:13:26;97935.56;;;16.59;84.96
40850;BME280;26571;41.610;25.380;2023-05-21T04:15:52;97935.50;;;16.66;85.41
40850;BME280;26571;41.610;25.380;2023-05-21T04:18:18;97925.00;;;16.52;86.24
40850;BME280;26571;41.610;25.380;2023-05-21T04:20:44;97944.72;;;16.63;85.87
40850;BME280;26571;41.610;25.380;2023-05-21T04:23:10;97956.22;;;16.57;86.14
40850;BME280;26571;41.610;25.380;2023-05-21T04:25:36;97948.91;;;16.52;86.01
40850;BME280;26571;41.610;25.380;2023-05-21T04:28:03;97958.25;;;16.55;86.28
40850;BME280;26571;41.610;25.380;2023-05-21T04:30:28;97954.81;;;16.54;87.23
40850;BME280;26571;41.610;25.380;2023-05-21T04:32:54;97968.41;;;16.65;84.88
40850;BME280;26571;41.610;25.380;2023-05-21T04:35:19;97973.09;;;16.69;84.13
40850;BME280;26571;41.610;25.380;2023-05-21T04:37:45;97978.47;;;16.63;84.66
40850;BME280;26571;41.610;25.380;2023-05-21T04:40:13;97965.50;;;16.48;85.27
40850;BME280;26571;41.610;25.380;2023-05-21T04:42:45;97992.94;;;16.67;86.19
40850;BME280;26571;41.610;25.380;2023-05-21T04:45:11;97989.50;;;16.60;87.72
40850;BME280;26571;41.610;25.380;2023-05-21T04:47:37;97989.97;;;16.57;89.90
40850;BME280;26571;41.610;25.380;2023-05-21T04:50:03;97985.22;;;16.59;90.24
40850;BME280;26571;41.610;25.380;2023-05-21T04:52:29;97954.75;;;16.36;90.54
40850;BME280;26571;41.610;25.380;2023-05-21T04:54:54;97989.50;;;16.60;91.97
40850;BME280;26571;41.610;25.380;2023-05-21T04:57:20;97990.44;;;16.47;92.93
40850;BME280;26571;41.610;25.380;2023-05-21T04:59:46;98003.44;;;16.55;94.05
40850;BME280;26571;41.610;25.380;2023-05-21T05:02:11;97993.22;;;16.59;93.94
40850;BME280;26571;41.610;25.380;2023-05-21T05:04:37;97997.72;;;16.58;94.77
40850;BME280;26571;41.610;25.380;2023-05-21T05:07:03;97998.94;;;16.55;95.41
40850;BME280;26571;41.610;25.380;2023-05-21T05:09:28;97997.94;;;16.57;95.80
40850;BME280;26571;41.610;25.380;2023-05-21T05:11:55;98002.03;;;16.52;94.95
40850;BME280;26571;41.610;25.380;2023-05-21T05:14:21;98002.63;;;16.54;94.58
40850;BME280;26571;41.610;25.380;2023-05-21T05:16:46;98011.63;;;16.53;94.94
40850;BME280;26571;41.610;25.380;2023-05-21T05:19:14;98004.25;;;16.55;95.74
40850;BME280;26571;41.610;25.380;2023-05-21T05:21:39;98004.09;;;16.50;97.78
40850;BME280;26571;41.610;25.380;2023-05-21T05:24:05;98004.31;;;16.49;98.05
40850;BME280;26571;41.610;25.380;2023-05-21T05:26:30;98007.13;;;16.54;98.38
40850;BME280;26571;41.610;25.380;2023-05-21T05:28:56;97994.28;;;16.51;98.54
40850;BME280;26571;41.610;25.380;2023-05-21T05:31:21;97998.94;;;16.55;93.86
40850;BME280;26571;41.610;25.380;2023-05-21T05:33:47;98005.97;;;16.43;93.60
40850;BME280;26571;41.610;25.380;2023-05-21T05:36:13;97995.59;;;16.35;95.29
40850;BME280;26571;41.610;25.380;2023-05-21T05:38:38;98009.97;;;16.27;94.35
40850;BME280;26571;41.610;25.380;2023-05-21T05:41:04;98004.81;;;16.33;94.06
40850;BME280;26571;41.610;25.380;2023-05-21T05:43:29;98009.91;;;16.34;94.01
40850;BME280;26571;41.610;25.380;2023-05-21T05:45:55;98006.63;;;16.39;93.71
40850;BME280;26571;41.610;25.380;2023-05-21T05:48:20;98009.88;;;16.41;93.52
40850;BME280;26571;41.610;25.380;2023-05-21T05:50:46;98011.28;;;16.43;93.57
40850;BME280;26571;41.610;25.380;2023-05-21T05:53:11;97995.00;;;16.33;93.57
40850;BME280;26571;41.610;25.380;2023-05-21T05:55:38;98003.09;;;16.45;93.18
40850;BME280;26571;41.610;25.380;2023-05-21T05:58:03;98005.50;;;16.53;92.96
40850;BME280;26571;41.610;25.380;2023-05-21T06:00:29;97999.81;;;16.49;93.31
40850;BME280;26571;41.610;25.380;2023-05-21T06:02:54;97999.81;;;16.49;93.70
40850;BME280;26571;41.610;25.380;2023-05-21T06:05:20;98005.13;;;16.49;93.33
40850;BME280;26571;41.610;25.380;2023-05-21T06:07:46;97992.13;;;16.41;92.46
40850;BME280;26571;41.610;25.380;2023-05-21T06:10:11;98009.91;;;16.66;91.63
40850;BME280;26571;41.610;25.380;2023-05-21T06:12:37;97843.03;;;15.61;91.38
40850;BME280;26571;41.610;25.380;2023-05-21T06:15:03;97972.00;;;16.52;91.77
40850;BME280;26571;41.610;25.380;2023-05-21T06:17:29;98015.38;;;16.77;91.72
40850;BME280;26571;41.610;25.380;2023-05-21T06:19:55;98013.47;;;16.85;91.17
40850;BME280;26571;41.610;25.380;2023-05-21T06:22:20;98011.44;;;16.87;90.63
40850;BME280;26571;41.610;25.380;2023-05-21T06:24:46;98009.13;;;16.90;90.38
40850;BME280;26571;41.610;25.380;2023-05-21T06:27:11;98011.53;;;16.98;90.20
40850;BME280;26571;41.610;25.380;2023-05-21T06:29:36;98013.38;;;16.98;89.70
40850;BME280;26571;41.610;25.380;2023-05-21T06:32:02;97998.50;;;16.90;90.46
40850;BME280;26571;41.610;25.380;2023-05-21T06:34:28;98000.09;;;16.98;91.63
40850;BME280;26571;41.610;25.380;2023-05-21T06:36:53;97998.16;;;17.05;91.57
40850;BME280;26571;41.610;25.380;2023-05-21T06:39:19;97996.88;;;17.14;91.12
40850;BME280;26571;41.610;25.380;2023-05-21T06:41:44;97992.75;;;17.18;91.30
40850;BME280;26571;41.610;25.380;2023-05-21T06:44:10;98003.31;;;17.25;90.75
40850;BME280;26571;41.610;25.380;2023-05-21T06:46:35;97998.59;;;17.27;89.97
40850;BME280;26571;41.610;25.380;2023-05-21T06:49:01;98004.00;;;17.39;88.07
40850;BME280;26571;41.610;25.380;2023-05-21T06:51:26;98003.56;;;17.42;87.25
40850;BME280;26571;41.610;25.380;2023-05-21T06:53:52;97994.53;;;17.43;86.20
40850;BME280;26571;41.610;25.380;2023-05-21T06:56:17;97993.75;;;17.42;86.33
40850;BME280;26571;41.610;25.380;2023-05-21T06:58:43;97967.72;;;17.26;85.72
40850;BME280;26571;41.610;25.380;2023-05-21T07:01:09;97991.59;;;17.51;85.57
40850;BME280;26571;41.610;25.380;2023-05-21T07:03:35;97993.13;;;17.58;85.33
40850;BME280;26571;41.610;25.380;2023-05-21T07:06:01;97969.41;;;17.39;86.36
40850;BME280;26571;41.610;25.380;2023-05-21T07:08:26;97994.75;;;17.60;85.86
40850;BME280;26571;41.610;25.380;2023-05-21T07:10:52;97986.06;;;17.71;86.10
40850;BME280;26571;41.610;25.380;2023-05-21T07:13:17;97970.69;;;17.73;84.79
40850;BME280;26571;41.610;25.380;2023-05-21T07:15:42;97989.47;;;17.96;84.68
40850;BME280;26571;41.610;25.380;2023-05-21T07:18:08;97983.66;;;17.99;83.21
40850;BME280;26571;41.610;25.380;2023-05-21T07:20:33;97987.75;;;18.02;82.36
40850;BME280;26571;41.610;25.380;2023-05-21T07:22:59;97990.53;;;18.07;82.60
40850;BME280;26571;41.610;25.380;2023-05-21T07:25:24;97989.19;;;18.16;82.80
40850;BME280;26571;41.610;25.380;2023-05-21T07:27:50;97987.63;;;18.27;83.27
40850;BME280;26571;41.610;25.380;2023-05-21T07:30:15;97983.94;;;18.40;81.01
40850;BME280;26571;41.610;25.380;2023-05-21T07:32:40;97985.72;;;18.57;81.61
40850;BME280;26571;41.610;25.380;2023-05-21T07:35:06;97989.41;;;18.75;81.71
40850;BME280;26571;41.610;25.380;2023-05-21T07:37:32;97967.72;;;18.83;82.43
40850;BME280;26571;41.610;25.380;2023-05-21T07:39:58;97968.53;;;19.07;82.05
40850;BME280;26571;41.610;25.380;2023-05-21T07:42:24;97976.75;;;19.52;79.29
40850;BME280;26571;41.610;25.380;2023-05-21T07:44:49;97978.34;;;19.77;77.30
40850;BME280;26571;41.610;25.380;2023-05-21T07:47:15;97988.97;;;20.00;71.70
40850;BME280;26571;41.610;25.380;2023-05-21T07:49:40;97991.25;;;20.08;68.60
40850;BME280;26571;41.610;25.380;2023-05-21T07:52:06;97988.75;;;20.19;67.58
40850;BME280;26571;41.610;25.380;2023-05-21T07:54:31;97993.25;;;20.30;67.04
40850;BME280;26571;41.610;25.380;2023-05-21T07:56:57;97998.28;;;20.43;66.32
40850;BME280;26571;41.610;25.380;2023-05-21T07:59:24;97993.03;;;20.77;63.62
40850;BME280;26571;41.610;25.380;2023-05-21T08:01:50;97997.41;;;21.16;63.13
40850;BME280;26571;41.610;25.380;2023-05-21T08:04:15;97996.50;;;21.45;64.30
40850;BME280;26571;41.610;25.380;2023-05-21T08:06:41;98000.25;;;21.65;63.67
40850;BME280;26571;41.610;25.380;2023-05-21T08:09:06;97998.00;;;21.57;63.92
40850;BME280;26571;41.610;25.380;2023-05-21T08:11:32;97969.41;;;21.24;59.99
40850;BME280;26571;41.610;25.380;2023-05-21T08:13:58;97995.22;;;21.30;61.15
40850;BME280;26571;41.610;25.380;2023-05-21T08:16:23;97991.31;;;21.21;60.36
40850;BME280;26571;41.610;25.380;2023-05-21T08:18:49;98000.16;;;21.22;59.54
40850;BME280;26571;41.610;25.380;2023-05-21T08:21:15;97998.59;;;21.26;61.41
40850;BME280;26571;41.610;25.380;2023-05-21T08:23:41;97988.16;;;21.24;59.25
40850;BME280;26571;41.610;25.380;2023-05-21T08:26:06;97991.63;;;21.25;59.78
40850;BME280;26571;41.610;25.380;2023-05-21T08:28:32;97993.50;;;21.41;59.45
40850;BME280;26571;41.610;25.380;2023-05-21T08:30:59;97992.34;;;21.54;58.12
40850;BME280;26571;41.610;25.380;2023-05-21T08:33:25;97993.22;;;21.59;57.53
40850;BME280;26571;41.610;25.380;2023-05-21T08:35:50;97986.94;;;21.71;57.65
40850;BME280;26571;41.610;25.380;2023-05-21T08:38:15;97997.28;;;21.84;56.36
40850;BME280;26571;41.610;25.380;2023-05-21T08:40:41;97994.25;;;22.02;56.73
40850;BME280;26571;41.610;25.380;2023-05-21T08:43:08;97993.34;;;21.91;56.09
40850;BME280;26571;41.610;25.380;2023-05-21T08:45:40;97995.06;;;22.03;56.92
40850;BME280;26571;41.610;25.380;2023-05-21T08:48:09;97997.19;;;22.23;54.73
40850;BME280;26571;41.610;25.380;2023-05-21T08:50:35;97994.97;;;22.14;53.70
40850;BME280;26571;41.610;25.380;2023-05-21T08:53:01;97988.50;;;21.88;53.27
40850;BME280;26571;41.610;25.380;2023-05-21T08:55:26;97983.88;;;21.84;54.06
40850;BME280;26571;41.610;25.380;2023-05-21T08:57:53;97989.34;;;21.94;54.60
40850;BME280;26571;41.610;25.380;2023-05-21T09:00:19;97989.09;;;21.96;55.26
40850;BME280;26571;41.610;25.380;2023-05-21T09:02:49;97998.22;;;22.16;54.76
40850;BME280;26571;41.610;25.380;2023-05-21T09:05:18;97980.94;;;22.29;54.66
40850;BME280;26571;41.610;25.380;2023-05-21T09:07:58;97987.78;;;22.47;54.71
40850;BME280;26571;41.610;25.380;2023-05-21T09:10:30;97990.56;;;22.57;52.55
40850;BME280;26571;41.610;25.380;2023-05-21T09:12:58;97999.28;;;22.69;52.79
40850;BME280;26571;41.610;25.380;2023-05-21T09:15:25;97985.81;;;22.64;51.67
40850;BME280;26571;41.610;25.380;2023-05-21T09:17:51;97975.81;;;22.55;53.37
40850;BME280;26571;41.610;25.380;2023-05-21T09:20:16;97992.66;;;22.50;53.19
40850;BME280;26571;41.610;25.380;2023-05-21T09:25:13;97992.13;;;23.12;51.52
40850;BME280;26571;41.610;25.380;2023-05-21T09:27:39;97997.53;;;23.17;49.57
40850;BME280;26571;41.610;25.380;2023-05-21T09:30:10;97981.75;;;22.89;49.46
40850;BME280;26571;41.610;25.380;2023-05-21T09:32:36;97994.84;;;22.85;48.61
40850;BME280;26571;41.610;25.380;2023-05-21T09:35:13;98003.69;;;22.86;49.77
40850;BME280;26571;41.610;25.380;2023-05-21T09:37:43;98001.28;;;22.84;47.98
40850;BME280;26571;41.610;25.380;2023-05-21T09:40:20;97992.00;;;22.65;47.15
40850;BME280;26571;41.610;25.380;2023-05-21T09:42:46;97987.84;;;22.52;48.63
40850;BME280;26571;41.610;25.380;2023-05-21T09:45:16;97990.28;;;22.27;48.33
40850;BME280;26571;41.610;25.380;2023-05-21T09:47:42;97986.03;;;22.31;48.52
40850;BME280;26571;41.610;25.380;2023-05-21T09:50:09;97985.16;;;22.25;48.11
40850;BME280;26571;41.610;25.380;2023-05-21T09:52:36;97981.09;;;22.23;48.14
40850;BME280;26571;41.610;25.380;2023-05-21T09:55:03;97986.84;;;22.09;48.80
40850;BME280;26571;41.610;25.380;2023-05-21T09:57:29;97990.16;;;22.16;50.23
40850;BME280;26571;41.610;25.380;2023-05-21T09:59:54;97989.41;;;22.21;51.18
40850;BME280;26571;41.610;25.380;2023-05-21T10:02:26;97990.38;;;22.37;50.25
40850;BME280;26571;41.610;25.380;2023-05-21T10:04:54;97999.53;;;22.41;48.01
40850;BME280;26571;41.610;25.380;2023-05-21T10:07:21;98009.63;;;22.29;48.79
40850;BME280;26571;41.610;25.380;2023-05-21T10:09:53;97992.59;;;22.45;48.30
40850;BME280;26571;41.610;25.380;2023-05-21T10:12:23;97996.44;;;22.54;48.85
40850;BME280;26571;41.610;25.380;2023-05-21T10:15:00;98002.50;;;22.71;49.22
40850;BME280;26571;41.610;25.380;2023-05-21T10:17:28;98003.06;;;22.74;46.97
40850;BME280;26571;41.610;25.380;2023-05-21T10:19:58;98001.88;;;22.59;50.03
40850;BME280;26571;41.610;25.380;2023-05-21T10:22:24;98004.25;;;22.56;49.17
40850;BME280;26571;41.610;25.380;2023-05-21T10:24:51;98003.94;;;22.52;49.10
40850;BME280;26571;41.610;25.380;2023-05-21T10:27:17;97973.31;;;22.21;48.40
40850;BME280;26571;41.610;25.380;2023-05-21T10:29:43;98012.03;;;22.30;48.26
40850;BME280;26571;41.610;25.380;2023-05-21T10:32:11;98010.59;;;22.23;49.71
40850;BME280;26571;41.610;25.380;2023-05-21T10:34:39;98009.72;;;21.95;50.08
40850;BME280;26571;41.610;25.380;2023-05-21T10:37:07;98017.50;;;21.97;49.86
40850;BME280;26571;41.610;25.380;2023-05-21T10:39:34;98013.47;;;21.94;50.03
40850;BME280;26571;41.610;25.380;2023-05-21T10:42:17;98016.59;;;21.86;51.03
40850;BME280;26571;41.610;25.380;2023-05-21T10:47:50;98015.78;;;21.63;51.03
40850;BME280;26571;41.610;25.380;2023-05-21T10:53:44;98022.34;;;21.56;52.15
40850;BME280;26571;41.610;25.380;2023-05-21T11:01:38;97984.59;;;21.35;52.98
40850;BME280;26571;41.610;25.380;2023-05-21T11:04:05;98017.06;;;21.61;52.96
40850;BME280;26571;41.610;25.380;2023-05-21T11:06:31;98015.78;;;21.63;52.15
40850;BME280;26571;41.610;25.380;2023-05-21T11:09:00;98017.31;;;21.59;52.41
40850;BME280;26571;41.610;25.380;2023-05-21T11:11:39;98011.78;;;21.66;52.77
40850;BME280;26571;41.610;25.380;2023-05-21T11:16:50;98012.72;;;21.77;53.25
40850;BME280;26571;41.610;25.380;2023-05-21T11:19:16;98004.38;;;21.95;54.08
40850;BME280;26571;41.610;25.380;2023-05-21T11:21:42;97996.50;;;22.10;54.76
40850;BME280;26571;41.610;25.380;2023-05-21T11:24:07;97994.41;;;22.12;51.59
40850;BME280;26571;41.610;25.380;2023-05-21T11:29:12;97978.63;;;22.16;49.79
40850;BME280;26571;41.610;25.380;2023-05-21T11:31:44;97988.66;;;22.26;51.14
40850;BME280;26571;41.610;25.380;2023-05-21T11:36:43;97994.13;;;22.36;50.92
40850;BME280;26571;41.610;25.380;2023-05-21T11:39:11;97996.84;;;22.41;52.33
40850;BME280;26571;41.610;25.380;2023-05-21T11:41:59;97992.00;;;22.38;52.83
40850;BME280;26571;41.610;25.380;2023-05-21T11:47:09;97983.91;;;22.33;52.57
40850;BME280;26571;41.610;25.380;2023-05-21T11:49:35;97976.25;;;22.47;51.29
40850;BME280;26571;41.610;25.380;2023-05-21T11:52:06;97983.94;;;22.65;51.30
40850;BME280;26571;41.610;25.380;2023-05-21T11:54:32;97982.16;;;22.76;51.75
40850;BME280;26571;41.610;25.380;2023-05-21T11:57:01;97986.72;;;22.75;50.80
40850;BME280;26571;41.610;25.380;2023-05-21T11:59:27;97977.84;;;22.75;50.92
40850;BME280;26571;41.610;25.380;2023-05-21T12:01:53;97965.66;;;22.62;50.75
40850;BME280;26571;41.610;25.380;2023-05-21T12:04:19;97963.81;;;22.67;50.87
40850;BME280;26571;41.610;25.380;2023-05-21T12:06:44;97958.56;;;22.78;49.42
40850;BME280;26571;41.610;25.380;2023-05-21T12:09:10;97966.94;;;22.86;50.07
40850;BME280;26571;41.610;25.380;2023-05-21T12:11:40;97926.78;;;22.64;48.86
40850;BME280;26571;41.610;25.380;2023-05-21T12:14:09;97952.94;;;22.79;50.24
40850;BME280;26571;41.610;25.380;2023-05-21T12:16:35;97958.25;;;22.74;50.70
40850;BME280;26571;41.610;25.380;2023-05-21T12:19:04;97925.50;;;22.40;49.92
40850;BME280;26571;41.610;25.380;2023-05-21T12:21:30;97955.00;;;22.72;51.58
40850;BME280;26571;41.610;25.380;2023-05-21T12:23:56;97953.69;;;22.75;50.91
40850;BME280;26571;41.610;25.380;2023-05-21T12:26:23;97915.41;;;22.52;51.32
40850;BME280;26571;41.610;25.380;2023-05-21T12:28:54;97948.38;;;22.80;50.25
40850;BME280;26571;41.610;25.380;2023-05-21T12:31:21;97947.28;;;22.81;51.36
40850;BME280;26571;41.610;25.380;2023-05-21T12:33:50;97950.16;;;22.69;51.20
40850;BME280;26571;41.610;25.380;2023-05-21T12:36:27;97943.47;;;22.71;52.31
40850;BME280;26571;41.610;25.380;2023-05-21T12:38:53;97946.41;;;22.70;51.76
40850;BME280;26571;41.610;25.380;2023-05-21T12:41:20;97945.09;;;22.73;52.27
40850;BME280;26571;41.610;25.380;2023-05-21T12:43:46;97931.59;;;22.62;51.77
40850;BME280;26571;41.610;25.380;2023-05-21T12:46:12;97939.09;;;22.60;51.53
40850;BME280;26571;41.610;25.380;2023-05-21T12:48:39;97936.41;;;22.60;52.48
40850;BME280;26571;41.610;25.380;2023-05-21T12:51:05;97933.09;;;22.48;52.75
40850;BME280;26571;41.610;25.380;2023-05-21T12:53:36;97934.91;;;22.42;52.40
40850;BME280;26571;41.610;25.380;2023-05-21T12:56:10;97931.91;;;22.34;52.50
40850;BME280;26571;41.610;25.380;2023-05-21T12:58:35;97936.78;;;22.42;52.38
40850;BME280;26571;41.610;25.380;2023-05-21T13:01:08;97921.22;;;22.39;51.72
40850;BME280;26571;41.610;25.380;2023-05-21T13:03:37;97933.00;;;22.38;51.60
40850;BME280;26571;41.610;25.380;2023-05-21T13:06:09;97923.38;;;22.42;51.14
40850;BME280;26571;41.610;25.380;2023-05-21T13:08:34;97926.63;;;22.44;52.58
40850;BME280;26571;41.610;25.380;2023-05-21T13:11:03;97929.34;;;22.49;52.69
40850;BME280;26571;41.610;25.380;2023-05-21T13:13:29;97923.44;;;22.52;52.44